MSC Flavia — 3FBD7 — position and weather

sailwx.info

Track history (hours):
 
Tides and Currents Weather Stations Pressure Air Temp Water Temp Dewpoint Dewpoint Depression Visibility Wind Speed Wind Dir Waves Ship Positions

MSC Flavia

Last reported at 2018-May-15 06:30 UTC. Time now 2018-May-27 12:02 UTC.
Position N 35°05' E 128°49'.
Warning: this ship's position is 12 days out of date.

Length 366 m; draft 12.5 m.

Type: Ship (hazmat cat A). MMSI: 373004000.

Date/timePositionNaut miles runAvg speedWind from/ knotsBaromVisibWave heightAir tempDewpointWater temp
2018-May-15 06:30N 35°05' E 128°49'0 0.0
2018-May-15 06:00N 35°05' E 128°49'6 5.3
2018-May-15 04:50N 34°59' E 128°49'3 8.5
2018-May-15 04:30N 34°56' E 128°51'19 4.9
2018-May-15 00:31N 34°37' E 128°53'0 5.3
2018-May-15 00:29N 34°36' E 128°53'2 3.6
2018-May-15 00:00N 34°35' E 128°52'4 6.8
2018-May-14 23:29N 34°32' E 128°49'4 7.0
2018-May-14 22:53N 34°30' E 128°45'13 6.6
2018-May-14 20:56N 34°18' E 128°37'1411.9
2018-May-14 19:45N 34°07' E 128°26'717.8
2018-May-14 19:21N 34°02' E 128°21'617.8
2018-May-14 19:00N 33°57' E 128°16'917.8
2018-May-14 18:30N 33°50' E 128°09'917.8
2018-May-14 18:01N 33°43' E 128°03'917.7
2018-May-14 17:30N 33°36' E 127°56'917.8
2018-May-14 17:00N 33°29' E 127°50'917.9
2018-May-14 16:31N 33°23' E 127°43'917.8
2018-May-14 16:00N 33°15' E 127°37'917.7
2018-May-14 15:30N 33°08' E 127°30'1017.8
2018-May-14 14:57N 33°01' E 127°23'715.8
2018-May-14 14:30N 32°56' E 127°16'714.9
2018-May-14 14:00N 32°51' E 127°09'714.7
2018-May-14 13:30N 32°47' E 127°02'714.5
2018-May-14 13:00N 32°43' E 126°55'714.3
2018-May-14 12:30N 32°38' E 126°49'714.2
2018-May-14 11:59N 32°34' E 126°42'913.9
2018-May-14 11:20N 32°27' E 126°34'3013.0
2018-May-14 09:01N 32°08' E 126°06'013.1
2018-May-14 08:59N 32°08' E 126°06'17415.8
2018-May-13 22:00N 30°18' E 123°28'1121.9
2018-May-13 21:30N 30°11' E 123°19'  
2018-May-09 11:51N 24°22' E 119°22'2314.6
2018-May-09 10:17N 24°06' E 119°06'514.6
2018-May-09 09:58N 24°02' E 119°02'5614.6
2018-May-09 06:07N 23°34' E 118°09'214.9
2018-May-09 05:59N 23°33' E 118°07'715.0
2018-May-09 05:30N 23°30' E 117°60'714.9
2018-May-09 05:00N 23°26' E 117°53'714.7
2018-May-09 04:30N 23°21' E 117°47'714.4
2018-May-09 04:00N 23°17' E 117°40'714.3
2018-May-09 03:30N 23°13' E 117°34'814.2
2018-May-09 02:54N 23°08' E 117°27'  
2018-May-06 16:00N 23°11' E 117°19'1020.6
2018-May-06 15:30N 23°18' E 117°27'1020.5
2018-May-06 15:00N 23°25' E 117°35'1020.8
2018-May-06 14:31N 23°31' E 117°45'1020.7
2018-May-06 14:01N 23°39' E 117°52'1020.9
2018-May-06 13:31N 23°46' E 118°00'1020.9
2018-May-06 13:01N 23°53' E 118°09'1020.7
2018-May-06 12:30N 24°01' E 118°16'1019.0
2018-May-06 12:00N 24°10' E 118°19'815.4
2018-May-06 11:30N 24°16' E 118°14'713.5
2018-May-06 11:00N 24°21' E 118°09'5 9.7
2018-May-06 10:30N 24°25' E 118°05'4 8.7
2018-May-06 10:00N 24°26' E 118°01'0 0.4
2018-May-06 09:25N 24°27' E 118°01'0 0.0
2018-May-06 08:55N 24°27' E 118°01'0 0.0
2018-May-06 08:25N 24°27' E 118°01'0 0.0
2018-May-06 07:55N 24°27' E 118°01'0 0.0
2018-May-06 07:28N 24°27' E 118°01'0 0.0
2018-May-06 06:58N 24°27' E 118°01'0 0.0
2018-May-06 06:25N 24°27' E 118°01'0 0.0
2018-May-06 05:55N 24°27' E 118°01'0 0.0
2018-May-06 05:19N 24°27' E 118°01'0 0.0
2018-May-06 04:55N 24°27' E 118°01'0 0.0
2018-May-06 04:25N 24°27' E 118°01'0 0.0
2018-May-06 03:55N 24°27' E 118°01'0 0.0
2018-May-06 03:28N 24°27' E 118°01'0 0.0
2018-May-06 02:58N 24°27' E 118°01'0 0.0
2018-May-06 02:28N 24°27' E 118°01'0 0.0
2018-May-06 01:58N 24°27' E 118°01'0 0.0
2018-May-06 01:28N 24°27' E 118°01'0 0.0
2018-May-06 00:58N 24°27' E 118°01'0 0.0
2018-May-06 00:28N 24°27' E 118°01'0 0.0
2018-May-05 23:58N 24°27' E 118°01'0 0.0
2018-May-05 23:28N 24°27' E 118°01'0 0.0
2018-May-05 22:58N 24°27' E 118°01'0 0.0
2018-May-05 22:28N 24°27' E 118°01'0 0.0
2018-May-05 21:58N 24°27' E 118°01'0 0.0
2018-May-05 21:28N 24°27' E 118°01'0 0.0
2018-May-05 20:55N 24°27' E 118°01'0 0.0
2018-May-05 20:28N 24°27' E 118°01'0 0.0
2018-May-05 19:55N 24°27' E 118°01'0 0.0
2018-May-05 19:25N 24°27' E 118°01'0 0.0
2018-May-05 18:55N 24°27' E 118°01'0 0.0
2018-May-05 18:25N 24°27' E 118°01'0 0.0
2018-May-05 17:55N 24°27' E 118°01'0 0.0
2018-May-05 17:28N 24°27' E 118°01'0 0.0
2018-May-05 16:58N 24°27' E 118°01'0 0.0
2018-May-05 16:28N 24°27' E 118°01'0 0.0
2018-May-05 15:58N 24°27' E 118°01'0 0.0
2018-May-05 15:28N 24°27' E 118°01'0 0.0
2018-May-05 14:58N 24°27' E 118°01'0 0.0
2018-May-05 14:28N 24°27' E 118°01'0 0.0
2018-May-05 13:58N 24°27' E 118°01'0 0.0
2018-May-05 13:28N 24°27' E 118°01'0 0.0
2018-May-05 13:01N 24°27' E 118°01'0 0.0
2018-May-05 12:25N 24°27' E 118°01'0 0.0
2018-May-05 11:58N 24°27' E 118°01'0 0.0
2018-May-05 11:28N 24°27' E 118°01'0 0.0
2018-May-05 10:58N 24°27' E 118°01'0 0.0
2018-May-05 10:28N 24°27' E 118°01'0 0.0
2018-May-05 09:58N 24°27' E 118°01'0 0.0
2018-May-05 09:28N 24°27' E 118°01'0 0.0
2018-May-05 08:55N 24°27' E 118°01'0 0.0
2018-May-05 08:28N 24°27' E 118°01'0 0.0
2018-May-05 07:58N 24°27' E 118°01'1 1.8
2018-May-05 07:30N 24°26' E 118°02'5 9.2
2018-May-05 07:00N 24°24' E 118°06'4 8.2
2018-May-05 06:30N 24°21' E 118°09'  
Track history (hours):
 
Tides and Currents Weather Stations Pressure Air Temp Water Temp Dewpoint Dewpoint Depression Visibility Wind Speed Wind Dir Waves Ship Positions

MSC Flavia

Last reported at 2018-May-15 06:30 UTC. Time now 2018-May-27 12:02 UTC.
Position N 35°05' E 128°49'.
Warning: this ship's position is 12 days out of date.

Length 366 m; draft 12.5 m.

Type: Ship (hazmat cat A). MMSI: 373004000.

Date/timePositionNaut miles runAvg speedWind from/ knotsBaromVisibWave heightAir tempDewpointWater temp
2018-May-15 06:30N 35°05' E 128°49'0 0.0
2018-May-15 06:00N 35°05' E 128°49'6 5.3
2018-May-15 04:50N 34°59' E 128°49'3 8.5
2018-May-15 04:30N 34°56' E 128°51'19 4.9
2018-May-15 00:31N 34°37' E 128°53'0 5.3
2018-May-15 00:29N 34°36' E 128°53'2 3.6
2018-May-15 00:00N 34°35' E 128°52'4 6.8
2018-May-14 23:29N 34°32' E 128°49'4 7.0
2018-May-14 22:53N 34°30' E 128°45'13 6.6
2018-May-14 20:56N 34°18' E 128°37'1411.9
2018-May-14 19:45N 34°07' E 128°26'717.8
2018-May-14 19:21N 34°02' E 128°21'617.8
2018-May-14 19:00N 33°57' E 128°16'917.8
2018-May-14 18:30N 33°50' E 128°09'917.8
2018-May-14 18:01N 33°43' E 128°03'917.7
2018-May-14 17:30N 33°36' E 127°56'917.8
2018-May-14 17:00N 33°29' E 127°50'917.9
2018-May-14 16:31N 33°23' E 127°43'917.8
2018-May-14 16:00N 33°15' E 127°37'917.7
2018-May-14 15:30N 33°08' E 127°30'1017.8
2018-May-14 14:57N 33°01' E 127°23'715.8
2018-May-14 14:30N 32°56' E 127°16'714.9
2018-May-14 14:00N 32°51' E 127°09'714.7
2018-May-14 13:30N 32°47' E 127°02'714.5
2018-May-14 13:00N 32°43' E 126°55'714.3
2018-May-14 12:30N 32°38' E 126°49'714.2
2018-May-14 11:59N 32°34' E 126°42'913.9
2018-May-14 11:20N 32°27' E 126°34'3013.0
2018-May-14 09:01N 32°08' E 126°06'013.1
2018-May-14 08:59N 32°08' E 126°06'17415.8
2018-May-13 22:00N 30°18' E 123°28'1121.9
2018-May-13 21:30N 30°11' E 123°19'  
2018-May-09 11:51N 24°22' E 119°22'2314.6
2018-May-09 10:17N 24°06' E 119°06'514.6
2018-May-09 09:58N 24°02' E 119°02'5614.6
2018-May-09 06:07N 23°34' E 118°09'214.9
2018-May-09 05:59N 23°33' E 118°07'715.0
2018-May-09 05:30N 23°30' E 117°60'714.9
2018-May-09 05:00N 23°26' E 117°53'714.7
2018-May-09 04:30N 23°21' E 117°47'714.4
2018-May-09 04:00N 23°17' E 117°40'714.3
2018-May-09 03:30N 23°13' E 117°34'814.2
2018-May-09 02:54N 23°08' E 117°27'  
2018-May-06 16:00N 23°11' E 117°19'1020.6
2018-May-06 15:30N 23°18' E 117°27'1020.5
2018-May-06 15:00N 23°25' E 117°35'1020.8
2018-May-06 14:31N 23°31' E 117°45'1020.7
2018-May-06 14:01N 23°39' E 117°52'1020.9
2018-May-06 13:31N 23°46' E 118°00'1020.9
2018-May-06 13:01N 23°53' E 118°09'1020.7
2018-May-06 12:30N 24°01' E 118°16'1019.0
2018-May-06 12:00N 24°10' E 118°19'815.4
2018-May-06 11:30N 24°16' E 118°14'713.5
2018-May-06 11:00N 24°21' E 118°09'5 9.7
2018-May-06 10:30N 24°25' E 118°05'4 8.7
2018-May-06 10:00N 24°26' E 118°01'0 0.4
2018-May-06 09:25N 24°27' E 118°01'0 0.0
2018-May-06 08:55N 24°27' E 118°01'0 0.0
2018-May-06 08:25N 24°27' E 118°01'0 0.0
2018-May-06 07:55N 24°27' E 118°01'0 0.0
2018-May-06 07:28N 24°27' E 118°01'0 0.0
2018-May-06 06:58N 24°27' E 118°01'0 0.0
2018-May-06 06:25N 24°27' E 118°01'0 0.0
2018-May-06 05:55N 24°27' E 118°01'0 0.0
2018-May-06 05:19N 24°27' E 118°01'0 0.0
2018-May-06 04:55N 24°27' E 118°01'0 0.0
2018-May-06 04:25N 24°27' E 118°01'0 0.0
2018-May-06 03:55N 24°27' E 118°01'0 0.0
2018-May-06 03:28N 24°27' E 118°01'0 0.0
2018-May-06 02:58N 24°27' E 118°01'0 0.0
2018-May-06 02:28N 24°27' E 118°01'0 0.0
2018-May-06 01:58N 24°27' E 118°01'0 0.0
2018-May-06 01:28N 24°27' E 118°01'0 0.0
2018-May-06 00:58N 24°27' E 118°01'0 0.0
2018-May-06 00:28N 24°27' E 118°01'0 0.0
2018-May-05 23:58N 24°27' E 118°01'0 0.0
2018-May-05 23:28N 24°27' E 118°01'0 0.0
2018-May-05 22:58N 24°27' E 118°01'0 0.0
2018-May-05 22:28N 24°27' E 118°01'0 0.0
2018-May-05 21:58N 24°27' E 118°01'0 0.0
2018-May-05 21:28N 24°27' E 118°01'0 0.0
2018-May-05 20:55N 24°27' E 118°01'0 0.0
2018-May-05 20:28N 24°27' E 118°01'0 0.0
2018-May-05 19:55N 24°27' E 118°01'0 0.0
2018-May-05 19:25N 24°27' E 118°01'0 0.0
2018-May-05 18:55N 24°27' E 118°01'0 0.0
2018-May-05 18:25N 24°27' E 118°01'0 0.0
2018-May-05 17:55N 24°27' E 118°01'0 0.0
2018-May-05 17:28N 24°27' E 118°01'0 0.0
2018-May-05 16:58N 24°27' E 118°01'0 0.0
2018-May-05 16:28N 24°27' E 118°01'0 0.0
2018-May-05 15:58N 24°27' E 118°01'0 0.0
2018-May-05 15:28N 24°27' E 118°01'0 0.0
2018-May-05 14:58N 24°27' E 118°01'0 0.0
2018-May-05 14:28N 24°27' E 118°01'0 0.0
2018-May-05 13:58N 24°27' E 118°01'0 0.0
2018-May-05 13:28N 24°27' E 118°01'0 0.0
2018-May-05 13:01N 24°27' E 118°01'0 0.0
2018-May-05 12:25N 24°27' E 118°01'0 0.0
2018-May-05 11:58N 24°27' E 118°01'0 0.0
2018-May-05 11:28N 24°27' E 118°01'0 0.0
2018-May-05 10:58N 24°27' E 118°01'0 0.0
2018-May-05 10:28N 24°27' E 118°01'0 0.0
2018-May-05 09:58N 24°27' E 118°01'0 0.0
2018-May-05 09:28N 24°27' E 118°01'0 0.0
2018-May-05 08:55N 24°27' E 118°01'0 0.0
2018-May-05 08:28N 24°27' E 118°01'0 0.0
2018-May-05 07:58N 24°27' E 118°01'1 1.8
2018-May-05 07:30N 24°26' E 118°02'5 9.2
2018-May-05 07:00N 24°24' E 118°06'4 8.2
2018-May-05 06:30N 24°21' E 118°09'  

Dump ship's entire track history